createdAt,value
2018-11-23T00:01:25.721Z,101943.38
2018-11-23T00:03:53.780Z,101943.80
2018-11-23T00:06:22.310Z,101946.36
2018-11-23T00:08:51.974Z,101948.47
2018-11-23T00:11:19.989Z,101939.26
2018-11-23T00:13:48.008Z,101946.02
2018-11-23T00:16:16.016Z,101943.97
2018-11-23T00:18:44.056Z,101948.64
2018-11-23T00:21:12.111Z,101944.02
2018-11-23T00:23:40.184Z,101945.76
2018-11-23T00:26:08.241Z,101941.54
2018-11-23T00:28:36.258Z,101944.05
2018-11-23T00:31:04.664Z,101950.81
2018-11-23T00:33:32.678Z,101955.45
2018-11-23T00:36:00.734Z,101955.89
2018-11-23T00:38:28.735Z,101958.03
2018-11-23T00:40:56.804Z,101961.78
2018-11-23T00:43:24.896Z,101960.98
2018-11-23T00:45:52.928Z,101961.45
2018-11-23T00:48:20.973Z,101965.25
2018-11-23T00:50:49.025Z,101958.97
2018-11-23T00:53:17.127Z,101963.59
2018-11-23T00:55:45.209Z,101959.82
2018-11-23T00:58:13.328Z,101953.95
2018-11-23T01:00:41.334Z,101960.27
2018-11-23T01:03:09.421Z,101955.68
2018-11-23T01:05:37.412Z,101956.94
2018-11-23T01:08:05.465Z,101956.13
2018-11-23T01:10:33.549Z,101950.69
2018-11-23T01:13:01.658Z,101947.75
2018-11-23T01:15:29.634Z,101943.97
2018-11-23T01:17:57.693Z,101943.56
2018-11-23T01:20:26.577Z,101942.30
2018-11-23T01:22:56.253Z,101944.42
2018-11-23T01:25:25.089Z,101947.37
2018-11-23T01:27:53.790Z,101937.73
2018-11-23T01:30:30.754Z,101954.94
2018-11-23T01:32:59.600Z,101953.69
2018-11-23T01:35:27.718Z,101946.16
2018-11-23T01:37:56.142Z,101946.98
2018-11-23T01:40:25.442Z,101948.24
2018-11-23T01:42:53.790Z,101946.98
2018-11-23T01:45:21.834Z,101943.65
2018-11-23T01:47:49.873Z,101939.44
2018-11-23T01:50:32.475Z,101947.42
2018-11-23T01:53:00.653Z,101941.54
2018-11-23T01:55:28.623Z,101950.36
2018-11-23T01:57:56.706Z,101952.88
2018-11-23T02:00:27.033Z,101953.31
2018-11-23T02:02:55.654Z,101952.06
2018-11-23T02:05:23.708Z,101952.47
2018-11-23T02:07:51.745Z,101949.97
2018-11-23T02:10:20.208Z,101948.29
2018-11-23T02:12:48.229Z,101946.20
2018-11-23T02:15:18.894Z,101937.41
2018-11-23T02:17:47.371Z,101944.93
2018-11-23T02:20:16.707Z,101936.55
2018-11-23T02:22:44.734Z,101942.44
2018-11-23T02:25:12.750Z,101939.06
2018-11-23T02:27:40.822Z,101939.48
2018-11-23T02:30:17.421Z,101936.97
2018-11-23T02:32:45.525Z,101941.57
2018-11-23T02:35:15.151Z,101940.75
2018-11-23T02:37:43.159Z,101943.69
2018-11-23T02:40:12.517Z,101932.78
2018-11-23T02:42:40.698Z,101927.33
2018-11-23T02:45:14.146Z,101925.22
2018-11-23T02:47:43.135Z,101932.79
2018-11-23T02:50:11.151Z,101933.62
2018-11-23T02:52:40.301Z,101931.93
2018-11-23T02:55:09.058Z,101925.64
2018-11-23T02:57:37.085Z,101932.37
2018-11-23T03:00:06.194Z,101936.16
2018-11-23T03:02:34.242Z,101932.79
2018-11-23T03:05:02.258Z,101935.73
2018-11-23T03:07:30.295Z,101936.15
2018-11-23T03:09:58.323Z,101939.92
2018-11-23T03:12:26.339Z,101937.80
2018-11-23T03:14:54.467Z,101931.11
2018-11-23T03:17:22.499Z,101930.70
2018-11-23T03:19:50.591Z,101928.58
2018-11-23T03:22:18.581Z,101929.86
2018-11-23T03:24:46.652Z,101924.81
2018-11-23T03:27:14.752Z,101921.46
2018-11-23T03:29:42.742Z,101920.19
2018-11-23T03:32:10.758Z,101921.04
2018-11-23T03:34:38.877Z,101921.86
2018-11-23T03:37:06.938Z,101928.58
2018-11-23T03:39:34.881Z,101923.94
2018-11-23T03:42:02.998Z,101922.28
2018-11-23T03:44:31.041Z,101918.48
2018-11-23T03:46:59.113Z,101921.85
2018-11-23T03:49:27.206Z,101921.01
2018-11-23T03:51:55.210Z,101916.36
2018-11-23T03:54:24.166Z,101912.59
2018-11-23T03:56:52.213Z,101914.70
2018-11-23T03:59:20.295Z,101913.83
2018-11-23T04:01:48.346Z,101913.38
2018-11-23T04:04:16.350Z,101909.25
2018-11-23T04:06:44.444Z,101908.37
2018-11-23T04:09:12.481Z,101911.28
2018-11-23T04:11:40.557Z,101911.28
2018-11-23T04:14:08.579Z,101910.44
2018-11-23T04:16:36.624Z,101904.95
2018-11-23T04:19:04.725Z,101906.18
2018-11-23T04:21:32.794Z,101907.87
2018-11-23T04:24:00.826Z,101906.16
2018-11-23T04:26:28.897Z,101902.78
2018-11-23T04:28:56.915Z,101906.58
2018-11-23T04:31:24.969Z,101904.47
2018-11-23T04:33:53.501Z,101899.80
2018-11-23T04:36:22.662Z,101901.94
2018-11-23T04:38:50.701Z,101898.98
2018-11-23T04:41:18.744Z,101896.05
2018-11-23T04:43:46.858Z,101900.67
2018-11-23T04:46:14.827Z,101906.20
2018-11-23T04:48:42.855Z,101895.22
2018-11-23T04:51:10.898Z,101905.75
2018-11-23T04:53:38.898Z,101911.20
2018-11-23T04:56:06.923Z,101907.84
2018-11-23T04:58:34.949Z,101910.34
2018-11-23T05:01:03.022Z,101909.52
2018-11-23T05:03:31.035Z,101905.71
2018-11-23T05:05:59.022Z,101896.48
2018-11-23T05:08:27.077Z,101895.65
2018-11-23T05:10:55.463Z,101901.98
2018-11-23T05:13:23.500Z,101893.58
2018-11-23T05:15:51.582Z,101892.66
2018-11-23T05:18:19.658Z,101891.44
2018-11-23T05:20:47.714Z,101886.36
2018-11-23T05:23:15.755Z,101884.61
2018-11-23T05:25:43.791Z,101875.75
2018-11-23T05:28:11.857Z,101883.41
2018-11-23T05:30:39.961Z,101887.49
2018-11-23T05:33:07.974Z,101874.05
2018-11-23T05:35:36.023Z,101879.00
2018-11-23T05:38:04.061Z,101879.85
2018-11-23T05:40:32.077Z,101871.41
2018-11-23T05:43:04.289Z,101871.47
2018-11-23T05:45:28.236Z,101861.77
2018-11-23T05:47:56.268Z,101863.06
2018-11-23T05:50:25.278Z,101865.94
2018-11-23T05:52:53.445Z,101863.34
2018-11-23T05:55:21.540Z,101857.36
2018-11-23T05:57:50.672Z,101851.98
2018-11-23T06:00:26.689Z,101837.20
2018-11-23T06:02:54.732Z,101843.10
2018-11-23T06:05:22.818Z,101851.99
2018-11-23T06:07:51.894Z,101840.42
2018-11-23T06:10:20.722Z,101841.61
2018-11-23T06:12:48.711Z,101833.70
2018-11-23T06:15:19.183Z,101844.17
2018-11-23T06:17:47.825Z,101842.19
2018-11-23T06:20:17.735Z,101837.37
2018-11-23T06:22:46.625Z,101836.49
2018-11-23T06:25:15.954Z,101835.16
2018-11-23T06:27:44.014Z,101838.76
2018-11-23T06:30:12.942Z,101840.87
2018-11-23T06:32:46.671Z,101848.92
2018-11-23T06:35:14.701Z,101852.39
2018-11-23T06:37:42.659Z,101855.75
2018-11-23T06:40:11.143Z,101852.38
2018-11-23T06:42:42.263Z,101860.37
2018-11-23T06:45:07.502Z,101854.88
2018-11-23T06:47:35.758Z,101864.59
2018-11-23T06:50:03.856Z,101863.34
2018-11-23T06:52:31.881Z,101864.13
2018-11-23T06:55:00.015Z,101860.48
2018-11-23T06:57:28.059Z,101867.24
2018-11-23T06:59:56.060Z,101862.55
2018-11-23T07:02:24.079Z,101861.27
2018-11-23T07:04:52.156Z,101859.61
2018-11-23T07:07:20.161Z,101858.69
2018-11-23T07:09:49.124Z,101865.09
2018-11-23T07:12:17.151Z,101863.41
2018-11-23T07:14:45.211Z,101870.59
2018-11-23T07:17:13.291Z,101871.84
2018-11-23T07:19:41.298Z,101869.72
2018-11-23T07:22:09.321Z,101873.66
2018-11-23T07:24:37.397Z,101871.41
2018-11-23T07:27:05.437Z,101882.50
2018-11-23T07:29:33.498Z,101878.30
2018-11-23T07:32:01.475Z,101874.03
2018-11-23T07:34:30.570Z,101877.70
2018-11-23T07:36:58.597Z,101876.07
2018-11-23T07:39:32.347Z,101873.92
2018-11-23T07:42:24.747Z,101870.16
2018-11-23T07:44:52.865Z,101865.44
2018-11-23T07:47:20.911Z,101867.12
2018-11-23T07:49:50.315Z,101866.20
2018-11-23T07:52:18.548Z,101864.17
2018-11-23T07:54:46.614Z,101861.98
2018-11-23T07:57:14.729Z,101874.23
2018-11-23T07:59:42.752Z,101869.16
2018-11-23T08:02:11.917Z,101885.27
2018-11-23T08:04:40.825Z,101884.47
2018-11-23T08:07:10.098Z,101876.81
2018-11-23T08:09:39.165Z,101872.49
2018-11-23T08:12:08.846Z,101876.24
2018-11-23T08:14:36.989Z,101873.80
2018-11-23T08:17:05.231Z,101870.41
2018-11-23T08:19:33.266Z,101861.39
2018-11-23T08:22:01.326Z,101869.44
2018-11-23T08:24:35.962Z,101864.25
2018-11-23T08:27:03.971Z,101857.44
2018-11-23T08:29:32.007Z,101855.42
2018-11-23T08:32:00.048Z,101850.33
2018-11-23T08:34:28.089Z,101858.40
2018-11-23T08:36:56.098Z,101858.91
2018-11-23T08:39:24.211Z,101848.95
2018-11-23T08:41:52.242Z,101852.45
2018-11-23T08:44:20.379Z,101848.09
2018-11-23T08:46:48.469Z,101842.09
2018-11-23T08:49:16.594Z,101850.66
2018-11-23T08:51:44.716Z,101850.52
2018-11-23T08:54:12.726Z,101854.61
2018-11-23T08:56:40.754Z,101859.80
2018-11-23T08:59:08.821Z,101864.81
2018-11-23T09:01:36.837Z,101876.36
2018-11-23T09:04:05.134Z,101876.70
2018-11-23T09:06:33.218Z,101874.02
2018-11-23T09:09:01.198Z,101867.45
2018-11-23T09:11:29.203Z,101867.66
2018-11-23T09:13:57.241Z,101863.84
2018-11-23T09:16:25.278Z,101857.60
2018-11-23T09:18:53.306Z,101854.52
2018-11-23T09:21:21.397Z,101845.93
2018-11-23T09:23:49.483Z,101846.98
2018-11-23T09:26:17.485Z,101850.05
2018-11-23T09:28:45.476Z,101849.88
2018-11-23T09:31:13.532Z,101852.53
2018-11-23T09:33:41.610Z,101845.70
2018-11-23T09:36:09.604Z,101839.42
2018-11-23T09:38:37.629Z,101842.55
2018-11-23T09:41:05.717Z,101847.61
2018-11-23T09:43:34.750Z,101845.16
2018-11-23T09:46:02.799Z,101846.11
2018-11-23T09:48:30.834Z,101847.52
2018-11-23T09:50:58.872Z,101840.95
2018-11-23T09:53:26.909Z,101844.08
2018-11-23T09:55:55.022Z,101846.91
2018-11-23T09:58:23.028Z,101841.61
2018-11-23T10:00:51.087Z,101835.64
2018-11-23T10:03:19.105Z,101828.15
2018-11-23T10:05:47.151Z,101827.80
2018-11-23T10:08:15.209Z,101839.78
2018-11-23T10:10:43.333Z,101835.38
2018-11-23T10:13:11.343Z,101829.77
2018-11-23T10:15:39.352Z,101822.66
2018-11-23T10:18:07.398Z,101819.28
2018-11-23T10:20:35.898Z,101808.08
2018-11-23T10:23:04.040Z,101804.45
2018-11-23T10:25:33.539Z,101803.84
2018-11-23T10:28:01.627Z,101810.98
2018-11-23T10:30:30.994Z,101804.36
2018-11-23T10:33:00.287Z,101809.80
2018-11-23T10:35:28.622Z,101813.92
2018-11-23T10:37:57.862Z,101816.50
2018-11-23T10:40:27.305Z,101810.86
2018-11-23T10:42:55.307Z,101809.41
2018-11-23T10:45:24.798Z,101807.87
2018-11-23T10:47:53.565Z,101810.81
2018-11-23T10:50:22.970Z,101805.48
2018-11-23T10:52:51.175Z,101807.03
2018-11-23T10:55:20.642Z,101802.16
2018-11-23T10:57:48.842Z,101802.84
2018-11-23T11:00:22.535Z,101799.98
2018-11-23T11:02:56.497Z,101788.05
2018-11-23T11:05:41.950Z,101783.56
2018-11-23T11:08:09.953Z,101782.38
2018-11-23T11:10:38.002Z,101781.81
2018-11-23T11:13:06.040Z,101773.73
2018-11-23T11:15:34.718Z,101767.23
2018-11-23T11:18:02.706Z,101767.70
2018-11-23T11:20:30.706Z,101768.04
2018-11-23T11:22:58.756Z,101759.23
2018-11-23T11:25:26.786Z,101759.17
2018-11-23T11:27:54.776Z,101755.02
2018-11-23T11:30:22.815Z,101742.78
2018-11-23T11:32:51.133Z,101738.50
2018-11-23T11:35:19.178Z,101729.16
2018-11-23T11:37:47.302Z,101730.39
2018-11-23T11:40:17.390Z,101730.86
2018-11-23T11:42:45.525Z,101732.67
2018-11-23T11:45:15.083Z,101725.80
2018-11-23T11:47:44.537Z,101725.19
2018-11-23T11:50:13.650Z,101718.22
2018-11-23T11:52:42.958Z,101721.41
2018-11-23T11:55:12.867Z,101712.66
2018-11-23T11:57:41.271Z,101710.89
2018-11-23T12:00:11.337Z,101710.66
2018-11-23T12:02:39.571Z,101713.03
2018-11-23T12:05:08.889Z,101706.89
2018-11-23T12:07:36.942Z,101707.16
2018-11-23T12:10:06.415Z,101710.11
2018-11-23T12:12:34.499Z,101704.23
2018-11-23T12:15:02.514Z,101698.56
2018-11-23T12:17:30.582Z,101694.30
2018-11-23T12:19:58.613Z,101692.53
2018-11-23T12:22:26.725Z,101686.26
2018-11-23T12:24:55.088Z,101682.83
2018-11-23T12:27:23.185Z,101684.45
2018-11-23T12:29:51.288Z,101678.55
2018-11-23T12:32:19.315Z,101670.44
2018-11-23T12:34:47.367Z,101668.06
2018-11-23T12:37:15.410Z,101661.35
2018-11-23T12:39:43.478Z,101661.42
2018-11-23T12:42:11.513Z,101671.47
2018-11-23T12:44:39.898Z,101671.59
2018-11-23T12:47:07.594Z,101670.78
2018-11-23T12:49:35.601Z,101662.85
2018-11-23T12:52:03.639Z,101665.30
2018-11-23T12:54:32.989Z,101657.31
2018-11-23T12:57:01.053Z,101650.28
2018-11-23T12:59:29.110Z,101644.73
2018-11-23T13:01:57.103Z,101648.49
2018-11-23T13:04:25.091Z,101652.25
2018-11-23T13:06:53.186Z,101649.95
2018-11-23T13:09:21.286Z,101653.92
2018-11-23T13:11:49.739Z,101654.45
2018-11-23T13:14:17.761Z,101656.50
2018-11-23T13:16:45.787Z,101644.16
2018-11-23T13:19:13.800Z,101638.45
2018-11-23T13:21:41.879Z,101638.52
2018-11-23T13:24:09.961Z,101641.06
2018-11-23T13:26:38.006Z,101637.36
2018-11-23T13:29:15.678Z,101632.50
2018-11-23T13:31:34.091Z,101626.09
2018-11-23T13:34:02.973Z,101623.22
2018-11-23T13:36:31.872Z,101622.34
2018-11-23T13:38:59.947Z,101619.28
2018-11-23T13:41:28.019Z,101614.03
2018-11-23T13:43:56.085Z,101618.77
2018-11-23T13:46:24.203Z,101621.69
2018-11-23T13:48:53.318Z,101615.82
2018-11-23T13:51:21.414Z,101613.09
2018-11-23T13:53:49.483Z,101608.89
2018-11-23T13:56:17.501Z,101604.62
2018-11-23T13:58:45.521Z,101601.56
2018-11-23T14:01:13.529Z,101597.73
2018-11-23T14:03:41.591Z,101598.87
2018-11-23T14:06:09.574Z,101599.78
2018-11-23T14:08:37.644Z,101609.84
2018-11-23T14:11:05.631Z,101600.73
2018-11-23T14:13:33.740Z,101596.79
2018-11-23T14:16:01.783Z,101600.14
2018-11-23T14:18:29.813Z,101599.66
2018-11-23T14:20:57.884Z,101599.19
2018-11-23T14:23:25.938Z,101599.95
2018-11-23T14:25:54.871Z,101599.87
2018-11-23T14:28:21.986Z,101606.33
2018-11-23T14:30:50.021Z,101602.54
2018-11-23T14:33:18.083Z,101603.09
2018-11-23T14:35:46.119Z,101592.73
2018-11-23T14:38:14.279Z,101585.52
2018-11-23T14:40:42.321Z,101587.19
2018-11-23T14:43:10.417Z,101583.52
2018-11-23T14:45:38.401Z,101585.93
2018-11-23T14:48:07.036Z,101582.66
2018-11-23T14:50:40.378Z,101585.72
2018-11-23T14:53:08.442Z,101585.67
2018-11-23T14:55:36.467Z,101581.97
2018-11-23T14:58:04.563Z,101582.84
2018-11-23T15:00:34.115Z,101579.41
2018-11-23T15:03:03.149Z,101576.47
2018-11-23T15:05:31.158Z,101573.55
2018-11-23T15:07:59.200Z,101578.33
2018-11-23T15:10:28.465Z,101580.19
2018-11-23T15:12:57.841Z,101572.71
2018-11-23T15:15:27.348Z,101574.54
2018-11-23T15:17:55.855Z,101571.22
2018-11-23T15:20:24.719Z,101572.79
2018-11-23T15:22:54.682Z,101570.82
2018-11-23T15:25:22.702Z,101573.11
2018-11-23T15:27:50.760Z,101563.42
2018-11-23T15:30:20.788Z,101565.47
2018-11-23T15:32:48.807Z,101565.35
2018-11-23T15:35:17.054Z,101561.73
2018-11-23T15:37:45.031Z,101561.27
2018-11-23T15:40:16.055Z,101561.70
2018-11-23T15:42:44.422Z,101557.65
2018-11-23T15:45:14.594Z,101563.65
2018-11-23T15:47:42.668Z,101564.00
2018-11-23T15:50:12.284Z,101564.23
2018-11-23T15:52:40.342Z,101560.89
2018-11-23T15:55:11.240Z,101563.91
2018-11-23T15:57:39.477Z,101560.16
2018-11-23T16:00:10.252Z,101566.36
2018-11-23T16:02:38.279Z,101571.05
2018-11-23T16:05:06.868Z,101575.80
2018-11-23T16:07:34.921Z,101581.23
2018-11-23T16:10:03.115Z,101581.23
2018-11-23T16:12:31.144Z,101578.51
2018-11-23T16:14:59.179Z,101574.48
2018-11-23T16:17:27.831Z,101573.55
2018-11-23T16:19:55.934Z,101575.82
2018-11-23T16:22:24.943Z,101576.91
2018-11-23T16:24:53.135Z,101571.48
2018-11-23T16:27:21.237Z,101572.85
2018-11-23T16:29:49.287Z,101568.73
2018-11-23T16:32:17.542Z,101569.23
2018-11-23T16:34:45.618Z,101569.23
2018-11-23T16:37:13.673Z,101564.92
2018-11-23T16:39:41.724Z,101564.98
2018-11-23T16:42:09.770Z,101564.86
2018-11-23T16:44:39.084Z,101567.98
2018-11-23T16:47:06.686Z,101569.91
2018-11-23T16:49:34.818Z,101570.90
2018-11-23T16:52:02.922Z,101561.00
2018-11-23T16:54:30.944Z,101554.12
2018-11-23T16:56:59.698Z,101549.50
2018-11-23T16:59:27.811Z,101546.67
2018-11-23T17:01:55.837Z,101548.41
2018-11-23T17:04:23.955Z,101544.78
2018-11-23T17:06:52.035Z,101547.45
2018-11-23T17:09:20.660Z,101552.71
2018-11-23T17:11:48.737Z,101548.09
2018-11-23T17:14:16.775Z,101546.36
2018-11-23T17:16:47.376Z,101543.62
2018-11-23T17:19:15.429Z,101547.19
2018-11-23T17:21:43.458Z,101548.13
2018-11-23T17:24:11.482Z,101547.59
2018-11-23T17:26:39.807Z,101542.26
2018-11-23T17:29:07.951Z,101540.00
2018-11-23T17:31:36.549Z,101541.77
2018-11-23T17:34:04.622Z,101543.25
2018-11-23T17:36:32.659Z,101546.41
2018-11-23T17:39:00.753Z,101538.07
2018-11-23T17:41:29.137Z,101540.45
2018-11-23T17:43:58.191Z,101533.57
2018-11-23T17:46:26.219Z,101529.20
2018-11-23T17:48:54.305Z,101534.14
2018-11-23T17:51:22.311Z,101526.66
2018-11-23T17:53:50.342Z,101523.69
2018-11-23T17:56:18.435Z,101514.78
2018-11-23T17:58:46.475Z,101515.56
2018-11-23T18:01:14.506Z,101517.78
2018-11-23T18:03:42.550Z,101519.50
2018-11-23T18:06:11.541Z,101517.33
2018-11-23T18:08:39.626Z,101500.43
2018-11-23T18:11:07.685Z,101512.61
2018-11-23T18:16:14.177Z,101520.32
2018-11-23T18:18:42.764Z,101511.53
2018-11-23T18:21:11.529Z,101508.30
2018-11-23T18:23:39.642Z,101503.27
2018-11-23T18:26:08.283Z,101501.41
2018-11-23T18:28:36.398Z,101491.67
2018-11-23T18:31:04.430Z,101482.13
2018-11-23T18:33:32.451Z,101481.16
2018-11-23T18:36:00.466Z,101480.25
2018-11-23T18:38:32.208Z,101472.98
2018-11-23T18:41:00.292Z,101475.67
2018-11-23T18:43:28.396Z,101470.16
2018-11-23T18:45:56.440Z,101468.20
2018-11-23T18:48:24.534Z,101472.21
2018-11-23T18:50:52.583Z,101471.16
2018-11-23T18:53:20.581Z,101475.32
2018-11-23T18:55:49.647Z,101469.34
2018-11-23T18:58:17.654Z,101468.91
2018-11-23T19:00:46.183Z,101466.88
2018-11-23T19:03:14.221Z,101461.14
2018-11-23T19:05:43.452Z,101457.50
2018-11-23T19:08:11.491Z,101454.45
2018-11-23T19:10:39.645Z,101452.70
2018-11-23T19:13:07.753Z,101453.19
2018-11-23T19:15:35.829Z,101449.66
2018-11-23T19:18:03.947Z,101453.43
2018-11-23T19:20:32.139Z,101443.73
2018-11-23T19:23:00.180Z,101438.91
2018-11-23T19:25:29.221Z,101425.91
2018-11-23T19:28:02.471Z,101426.73
2018-11-23T19:30:30.494Z,101431.75
2018-11-23T19:32:58.538Z,101431.39
2018-11-23T19:35:27.185Z,101438.40
2018-11-23T19:37:56.200Z,101433.98
2018-11-23T19:40:24.540Z,101420.59
2018-11-23T19:42:52.572Z,101427.59
2018-11-23T19:45:21.791Z,101429.16
2018-11-23T19:47:49.877Z,101425.56
2018-11-23T19:50:19.008Z,101427.67
2018-11-23T19:52:47.425Z,101423.14
2018-11-23T19:55:16.131Z,101425.97
2018-11-23T19:57:44.255Z,101416.31
2018-11-23T20:00:17.341Z,101414.34
2018-11-23T20:02:45.353Z,101411.07
2018-11-23T20:05:13.425Z,101407.70
2018-11-23T20:07:41.394Z,101401.05
2018-11-23T20:10:10.455Z,101405.97
2018-11-23T20:12:38.628Z,101399.63
2018-11-23T20:15:08.223Z,101401.33
2018-11-23T20:17:41.240Z,101400.23
2018-11-23T20:20:05.095Z,101395.28
2018-11-23T20:22:33.129Z,101391.08
2018-11-23T20:25:01.218Z,101386.19
2018-11-23T20:27:29.233Z,101378.17
2018-11-23T20:29:57.282Z,101368.18
2018-11-23T20:32:26.707Z,101371.36
2018-11-23T20:34:55.333Z,101376.02
2018-11-23T20:37:23.437Z,101371.17
2018-11-23T20:39:51.486Z,101370.81
2018-11-23T20:42:19.697Z,101364.80
2018-11-23T20:44:47.989Z,101363.14
2018-11-23T20:47:16.002Z,101370.88
2018-11-23T20:49:45.859Z,101373.41
2018-11-23T20:52:12.817Z,101368.99
2018-11-23T20:54:40.882Z,101369.30
2018-11-23T20:57:08.904Z,101377.28
2018-11-23T20:59:38.950Z,101371.84
2018-11-23T21:02:04.990Z,101371.95
2018-11-23T21:04:35.520Z,101379.19
2018-11-23T21:07:03.619Z,101373.45
2018-11-23T21:09:31.693Z,101371.77
2018-11-23T21:11:59.743Z,101371.39
2018-11-23T21:14:27.798Z,101368.09
2018-11-23T21:16:55.832Z,101368.25
2018-11-23T21:19:23.892Z,101360.83
2018-11-23T21:21:51.984Z,101358.77
2018-11-23T21:24:20.019Z,101357.52
2018-11-23T21:26:48.906Z,101357.15
2018-11-23T21:29:16.958Z,101354.23
2018-11-23T21:31:45.003Z,101355.08
2018-11-23T21:34:13.035Z,101356.83
2018-11-23T21:36:41.056Z,101359.67
2018-11-23T21:39:13.846Z,101358.31
2018-11-23T21:41:37.963Z,101355.20
2018-11-23T21:44:05.988Z,101345.97
2018-11-23T21:46:34.071Z,101349.77
2018-11-23T21:49:02.138Z,101342.23
2018-11-23T21:51:30.188Z,101340.03
2018-11-23T21:53:58.187Z,101339.92
2018-11-23T21:56:26.900Z,101332.17
2018-11-23T21:58:54.971Z,101326.44
2018-11-23T22:01:23.017Z,101334.92
2018-11-23T22:03:51.064Z,101327.38
2018-11-23T22:06:19.127Z,101328.28
2018-11-23T22:08:48.154Z,101334.64
2018-11-23T22:11:17.088Z,101328.02
2018-11-23T22:13:45.118Z,101322.11
2018-11-23T22:16:13.133Z,101321.21
2018-11-23T22:18:41.149Z,101322.58
2018-11-23T22:21:09.146Z,101313.38
2018-11-23T22:23:37.173Z,101313.83
2018-11-23T22:26:05.240Z,101313.04
2018-11-23T22:28:33.320Z,101306.73
2018-11-23T22:31:01.354Z,101312.21
2018-11-23T22:33:29.423Z,101313.58
2018-11-23T22:35:57.494Z,101308.14
2018-11-23T22:38:25.550Z,101312.42
2018-11-23T22:40:54.694Z,101318.31
2018-11-23T22:43:22.686Z,101322.05
2018-11-23T22:45:50.702Z,101315.36
2018-11-23T22:48:18.774Z,101312.56
2018-11-23T22:50:46.825Z,101307.18
2018-11-23T22:53:14.847Z,101310.08
2018-11-23T22:55:42.912Z,101300.81
2018-11-23T22:58:10.965Z,101300.86
2018-11-23T23:00:40.936Z,101302.55
2018-11-23T23:03:09.045Z,101288.22
2018-11-23T23:05:37.098Z,101286.92
2018-11-23T23:08:05.527Z,101292.91
2018-11-23T23:10:33.561Z,101291.27
2018-11-23T23:13:01.620Z,101286.21
2018-11-23T23:15:29.653Z,101290.95
2018-11-23T23:17:58.524Z,101285.38
2018-11-23T23:20:26.582Z,101288.05
2018-11-23T23:22:54.802Z,101289.31
2018-11-23T23:25:22.938Z,101282.25
2018-11-23T23:27:50.947Z,101288.11
2018-11-23T23:30:19.032Z,101295.68
2018-11-23T23:32:47.474Z,101294.80
2018-11-23T23:35:15.894Z,101294.33
2018-11-23T23:37:43.950Z,101298.59
2018-11-23T23:40:15.019Z,101297.09
2018-11-23T23:42:43.148Z,101295.36
2018-11-23T23:45:11.600Z,101290.31
2018-11-23T23:47:39.662Z,101294.61
2018-11-23T23:50:16.900Z,101303.04
2018-11-23T23:52:44.945Z,101290.50
2018-11-23T23:55:12.972Z,101288.58
2018-11-23T23:57:42.496Z,101283.58
